sensor_id;sensor_type;location;lat;lon;timestamp;pressure;altitude;pressure_sealevel;temperature
20092;BMP180;10205;49.678;6.560;2022-10-31T00:01:25;100403.00;;;16.10
20092;BMP180;10205;49.678;6.560;2022-10-31T00:03:54;100429.00;;;16.10
20092;BMP180;10205;49.678;6.560;2022-10-31T00:06:23;100426.00;;;16.10
20092;BMP180;10205;49.678;6.560;2022-10-31T00:08:54;100380.00;;;16.00
20092;BMP180;10205;49.678;6.560;2022-10-31T00:11:24;100426.00;;;16.00
20092;BMP180;10205;49.678;6.560;2022-10-31T00:13:51;100422.00;;;16.00
20092;BMP180;10205;49.678;6.560;2022-10-31T00:16:21;100415.00;;;16.00
20092;BMP180;10205;49.678;6.560;2022-10-31T00:18:49;100408.00;;;16.00
20092;BMP180;10205;49.678;6.560;2022-10-31T00:21:17;100415.00;;;15.90
20092;BMP180;10205;49.678;6.560;2022-10-31T00:23:47;100410.00;;;15.90
20092;BMP180;10205;49.678;6.560;2022-10-31T00:26:15;100418.00;;;15.90
20092;BMP180;10205;49.678;6.560;2022-10-31T00:28:44;100386.00;;;15.90
20092;BMP180;10205;49.678;6.560;2022-10-31T00:31:14;100415.00;;;15.90
20092;BMP180;10205;49.678;6.560;2022-10-31T00:33:42;100372.00;;;15.90
20092;BMP180;10205;49.678;6.560;2022-10-31T00:36:16;100399.00;;;15.80
20092;BMP180;10205;49.678;6.560;2022-10-31T00:38:47;100405.00;;;15.80
20092;BMP180;10205;49.678;6.560;2022-10-31T00:41:17;100410.00;;;15.60
20092;BMP180;10205;49.678;6.560;2022-10-31T00:43:46;100407.00;;;15.80
20092;BMP180;10205;49.678;6.560;2022-10-31T00:46:14;100370.00;;;15.70
20092;BMP180;10205;49.678;6.560;2022-10-31T00:48:41;100397.00;;;15.70
20092;BMP180;10205;49.678;6.560;2022-10-31T00:51:09;100390.00;;;15.70
20092;BMP180;10205;49.678;6.560;2022-10-31T00:53:37;100398.00;;;15.70
20092;BMP180;10205;49.678;6.560;2022-10-31T00:56:05;100388.00;;;15.70
20092;BMP180;10205;49.678;6.560;2022-10-31T00:58:33;100398.00;;;15.70
20092;BMP180;10205;49.678;6.560;2022-10-31T01:01:02;100397.00;;;15.70
20092;BMP180;10205;49.678;6.560;2022-10-31T01:03:32;100384.00;;;15.60
20092;BMP180;10205;49.678;6.560;2022-10-31T01:06:04;100395.00;;;15.60
20092;BMP180;10205;49.678;6.560;2022-10-31T01:08:31;100391.00;;;15.60
20092;BMP180;10205;49.678;6.560;2022-10-31T01:11:06;100364.00;;;15.60
20092;BMP180;10205;49.678;6.560;2022-10-31T01:13:34;100400.00;;;15.60
20092;BMP180;10205;49.678;6.560;2022-10-31T01:16:07;100368.00;;;15.60
20092;BMP180;10205;49.678;6.560;2022-10-31T01:18:35;100341.00;;;15.60
20092;BMP180;10205;49.678;6.560;2022-10-31T01:21:05;100397.00;;;15.50
20092;BMP180;10205;49.678;6.560;2022-10-31T01:23:33;100400.00;;;15.50
20092;BMP180;10205;49.678;6.560;2022-10-31T01:26:05;100390.00;;;15.50
20092;BMP180;10205;49.678;6.560;2022-10-31T01:28:34;100405.00;;;15.50
20092;BMP180;10205;49.678;6.560;2022-10-31T01:31:05;100401.00;;;15.50
20092;BMP180;10205;49.678;6.560;2022-10-31T01:33:36;100398.00;;;15.40
20092;BMP180;10205;49.678;6.560;2022-10-31T01:36:13;100371.00;;;15.50
20092;BMP180;10205;49.678;6.560;2022-10-31T01:38:45;100382.00;;;15.50
20092;BMP180;10205;49.678;6.560;2022-10-31T01:41:16;100399.00;;;15.40
20092;BMP180;10205;49.678;6.560;2022-10-31T01:43:51;100387.00;;;15.40
20092;BMP180;10205;49.678;6.560;2022-10-31T01:46:24;100340.00;;;15.40
20092;BMP180;10205;49.678;6.560;2022-10-31T01:48:54;100312.00;;;15.30
20092;BMP180;10205;49.678;6.560;2022-10-31T01:51:28;100342.00;;;15.40
20092;BMP180;10205;49.678;6.560;2022-10-31T01:54:04;100373.00;;;15.40
20092;BMP180;10205;49.678;6.560;2022-10-31T01:56:37;100365.00;;;15.40
20092;BMP180;10205;49.678;6.560;2022-10-31T01:59:11;100385.00;;;15.40
20092;BMP180;10205;49.678;6.560;2022-10-31T02:01:43;100387.00;;;15.30
20092;BMP180;10205;49.678;6.560;2022-10-31T02:04:10;100378.00;;;15.30
20092;BMP180;10205;49.678;6.560;2022-10-31T02:06:45;100376.00;;;15.30
20092;BMP180;10205;49.678;6.560;2022-10-31T02:09:14;100350.00;;;15.30
20092;BMP180;10205;49.678;6.560;2022-10-31T02:11:43;100305.00;;;15.30
20092;BMP180;10205;49.678;6.560;2022-10-31T02:14:12;100330.00;;;15.30
20092;BMP180;10205;49.678;6.560;2022-10-31T02:16:42;100368.00;;;15.30
20092;BMP180;10205;49.678;6.560;2022-10-31T02:19:18;100374.00;;;15.30
20092;BMP180;10205;49.678;6.560;2022-10-31T02:21:54;100323.00;;;15.30
20092;BMP180;10205;49.678;6.560;2022-10-31T02:25:01;100360.00;;;15.30
20092;BMP180;10205;49.678;6.560;2022-10-31T02:28:00;100289.00;;;15.30
20092;BMP180;10205;49.678;6.560;2022-10-31T02:30:40;100374.00;;;15.20
20092;BMP180;10205;49.678;6.560;2022-10-31T02:33:25;100348.00;;;15.20
20092;BMP180;10205;49.678;6.560;2022-10-31T02:36:07;100350.00;;;15.20
20092;BMP180;10205;49.678;6.560;2022-10-31T02:38:51;100341.00;;;15.20
20092;BMP180;10205;49.678;6.560;2022-10-31T02:41:29;100310.00;;;15.20
20092;BMP180;10205;49.678;6.560;2022-10-31T02:44:07;100344.00;;;15.20
20092;BMP180;10205;49.678;6.560;2022-10-31T02:46:44;100349.00;;;15.20
20092;BMP180;10205;49.678;6.560;2022-10-31T02:49:31;100343.00;;;15.20
20092;BMP180;10205;49.678;6.560;2022-10-31T02:52:00;100326.00;;;15.10
20092;BMP180;10205;49.678;6.560;2022-10-31T02:54:28;100322.00;;;15.20
20092;BMP180;10205;49.678;6.560;2022-10-31T02:57:01;100308.00;;;15.10
20092;BMP180;10205;49.678;6.560;2022-10-31T02:59:32;100335.00;;;15.10
20092;BMP180;10205;49.678;6.560;2022-10-31T03:02:43;100345.00;;;15.10
20092;BMP180;10205;49.678;6.560;2022-10-31T03:05:43;100318.00;;;15.10
20092;BMP180;10205;49.678;6.560;2022-10-31T03:08:23;100280.00;;;15.10
20092;BMP180;10205;49.678;6.560;2022-10-31T03:10:58;100324.00;;;15.10
20092;BMP180;10205;49.678;6.560;2022-10-31T03:13:35;100272.00;;;15.10
20092;BMP180;10205;49.678;6.560;2022-10-31T03:16:12;100326.00;;;15.10
20092;BMP180;10205;49.678;6.560;2022-10-31T03:18:48;100335.00;;;15.10
20092;BMP180;10205;49.678;6.560;2022-10-31T03:21:23;100318.00;;;15.10
20092;BMP180;10205;49.678;6.560;2022-10-31T03:23:53;100326.00;;;15.10
20092;BMP180;10205;49.678;6.560;2022-10-31T03:26:23;100330.00;;;15.00
20092;BMP180;10205;49.678;6.560;2022-10-31T03:28:55;100324.00;;;15.00
20092;BMP180;10205;49.678;6.560;2022-10-31T03:31:37;100337.00;;;15.00
20092;BMP180;10205;49.678;6.560;2022-10-31T03:34:08;100269.00;;;15.00
20092;BMP180;10205;49.678;6.560;2022-10-31T03:36:40;100337.00;;;15.00
20092;BMP180;10205;49.678;6.560;2022-10-31T03:39:13;100319.00;;;15.00
20092;BMP180;10205;49.678;6.560;2022-10-31T03:41:49;100317.00;;;15.00
20092;BMP180;10205;49.678;6.560;2022-10-31T03:44:23;100320.00;;;15.00
20092;BMP180;10205;49.678;6.560;2022-10-31T03:46:51;100330.00;;;15.00
20092;BMP180;10205;49.678;6.560;2022-10-31T03:49:19;100318.00;;;14.90
20092;BMP180;10205;49.678;6.560;2022-10-31T03:51:55;100326.00;;;14.90
20092;BMP180;10205;49.678;6.560;2022-10-31T03:54:31;100316.00;;;14.90
20092;BMP180;10205;49.678;6.560;2022-10-31T03:57:12;100319.00;;;14.90
20092;BMP180;10205;49.678;6.560;2022-10-31T03:59:45;100307.00;;;14.90
20092;BMP180;10205;49.678;6.560;2022-10-31T04:02:18;100297.00;;;14.90
20092;BMP180;10205;49.678;6.560;2022-10-31T04:04:50;100319.00;;;14.90
20092;BMP180;10205;49.678;6.560;2022-10-31T04:07:21;100325.00;;;14.90
20092;BMP180;10205;49.678;6.560;2022-10-31T04:09:52;100315.00;;;14.90
20092;BMP180;10205;49.678;6.560;2022-10-31T04:12:22;100307.00;;;14.90
20092;BMP180;10205;49.678;6.560;2022-10-31T04:14:52;100335.00;;;14.90
20092;BMP180;10205;49.678;6.560;2022-10-31T04:17:23;100309.00;;;14.80
20092;BMP180;10205;49.678;6.560;2022-10-31T04:19:54;100340.00;;;14.90
20092;BMP180;10205;49.678;6.560;2022-10-31T04:22:25;100294.00;;;14.80
20092;BMP180;10205;49.678;6.560;2022-10-31T04:24:53;100332.00;;;14.80
20092;BMP180;10205;49.678;6.560;2022-10-31T04:27:20;100338.00;;;14.80
20092;BMP180;10205;49.678;6.560;2022-10-31T04:29:47;100307.00;;;14.80
20092;BMP180;10205;49.678;6.560;2022-10-31T04:32:15;100340.00;;;14.80
20092;BMP180;10205;49.678;6.560;2022-10-31T04:34:43;100330.00;;;14.80
20092;BMP180;10205;49.678;6.560;2022-10-31T04:37:10;100318.00;;;14.80
20092;BMP180;10205;49.678;6.560;2022-10-31T04:39:39;100287.00;;;14.80
20092;BMP180;10205;49.678;6.560;2022-10-31T04:42:06;100318.00;;;14.80
20092;BMP180;10205;49.678;6.560;2022-10-31T04:44:33;100323.00;;;14.80
20092;BMP180;10205;49.678;6.560;2022-10-31T04:47:01;100317.00;;;14.80
20092;BMP180;10205;49.678;6.560;2022-10-31T04:49:28;100317.00;;;14.70
20092;BMP180;10205;49.678;6.560;2022-10-31T04:51:55;100324.00;;;14.70
20092;BMP180;10205;49.678;6.560;2022-10-31T04:54:22;100330.00;;;14.70
20092;BMP180;10205;49.678;6.560;2022-10-31T04:56:50;100299.00;;;14.60
20092;BMP180;10205;49.678;6.560;2022-10-31T04:59:17;100261.00;;;14.70
20092;BMP180;10205;49.678;6.560;2022-10-31T05:01:45;100318.00;;;14.70
20092;BMP180;10205;49.678;6.560;2022-10-31T05:04:12;100324.00;;;14.70
20092;BMP180;10205;49.678;6.560;2022-10-31T05:06:40;100242.00;;;14.70
20092;BMP180;10205;49.678;6.560;2022-10-31T05:09:07;100308.00;;;14.60
20092;BMP180;10205;49.678;6.560;2022-10-31T05:11:34;100262.00;;;14.60
20092;BMP180;10205;49.678;6.560;2022-10-31T05:14:03;100295.00;;;14.70
20092;BMP180;10205;49.678;6.560;2022-10-31T05:16:31;100269.00;;;14.70
20092;BMP180;10205;49.678;6.560;2022-10-31T05:18:58;100296.00;;;14.70
20092;BMP180;10205;49.678;6.560;2022-10-31T05:21:27;100244.00;;;14.60
20092;BMP180;10205;49.678;6.560;2022-10-31T05:23:56;100264.00;;;14.70
20092;BMP180;10205;49.678;6.560;2022-10-31T05:26:23;100285.00;;;14.60
20092;BMP180;10205;49.678;6.560;2022-10-31T05:28:51;100285.00;;;14.60
20092;BMP180;10205;49.678;6.560;2022-10-31T05:31:19;100282.00;;;14.60
20092;BMP180;10205;49.678;6.560;2022-10-31T05:33:46;100280.00;;;14.60
20092;BMP180;10205;49.678;6.560;2022-10-31T05:36:13;100280.00;;;14.60
20092;BMP180;10205;49.678;6.560;2022-10-31T05:38:40;100277.00;;;14.60
20092;BMP180;10205;49.678;6.560;2022-10-31T05:41:07;100271.00;;;14.60
20092;BMP180;10205;49.678;6.560;2022-10-31T05:43:35;100266.00;;;14.60
20092;BMP180;10205;49.678;6.560;2022-10-31T05:46:03;100270.00;;;14.60
20092;BMP180;10205;49.678;6.560;2022-10-31T05:48:31;100266.00;;;14.50
20092;BMP180;10205;49.678;6.560;2022-10-31T05:50:59;100268.00;;;14.50
20092;BMP180;10205;49.678;6.560;2022-10-31T05:53:26;100271.00;;;14.50
20092;BMP180;10205;49.678;6.560;2022-10-31T05:55:53;100260.00;;;14.50
20092;BMP180;10205;49.678;6.560;2022-10-31T05:58:20;100268.00;;;14.50
20092;BMP180;10205;49.678;6.560;2022-10-31T06:00:47;100207.00;;;14.50
20092;BMP180;10205;49.678;6.560;2022-10-31T06:03:14;100267.00;;;14.50
20092;BMP180;10205;49.678;6.560;2022-10-31T06:05:44;100268.00;;;14.50
20092;BMP180;10205;49.678;6.560;2022-10-31T06:08:11;100264.00;;;14.50
20092;BMP180;10205;49.678;6.560;2022-10-31T06:10:38;100267.00;;;14.50
20092;BMP180;10205;49.678;6.560;2022-10-31T06:13:05;100199.00;;;14.30
20092;BMP180;10205;49.678;6.560;2022-10-31T06:15:33;100218.00;;;14.50
20092;BMP180;10205;49.678;6.560;2022-10-31T06:18:05;100269.00;;;14.50
20092;BMP180;10205;49.678;6.560;2022-10-31T06:20:36;100267.00;;;14.50
20092;BMP180;10205;49.678;6.560;2022-10-31T06:23:05;100269.00;;;14.50
20092;BMP180;10205;49.678;6.560;2022-10-31T06:25:34;100269.00;;;14.50
20092;BMP180;10205;49.678;6.560;2022-10-31T06:28:02;100268.00;;;14.50
20092;BMP180;10205;49.678;6.560;2022-10-31T06:30:30;100261.00;;;14.50
20092;BMP180;10205;49.678;6.560;2022-10-31T06:33:07;100264.00;;;14.50
20092;BMP180;10205;49.678;6.560;2022-10-31T06:35:37;100244.00;;;14.50
20092;BMP180;10205;49.678;6.560;2022-10-31T06:38:06;100272.00;;;14.50
20092;BMP180;10205;49.678;6.560;2022-10-31T06:40:33;100272.00;;;14.50
20092;BMP180;10205;49.678;6.560;2022-10-31T06:43:02;100242.00;;;14.50
20092;BMP180;10205;49.678;6.560;2022-10-31T06:45:29;100278.00;;;14.50
20092;BMP180;10205;49.678;6.560;2022-10-31T06:47:58;100207.00;;;14.40
20092;BMP180;10205;49.678;6.560;2022-10-31T06:50:26;100237.00;;;14.50
20092;BMP180;10205;49.678;6.560;2022-10-31T06:52:54;100287.00;;;14.50
20092;BMP180;10205;49.678;6.560;2022-10-31T06:55:25;100253.00;;;14.50
20092;BMP180;10205;49.678;6.560;2022-10-31T06:57:54;100282.00;;;14.50
20092;BMP180;10205;49.678;6.560;2022-10-31T07:00:22;100232.00;;;14.50
20092;BMP180;10205;49.678;6.560;2022-10-31T07:02:55;100236.00;;;14.50
20092;BMP180;10205;49.678;6.560;2022-10-31T07:05:24;100251.00;;;14.50
20092;BMP180;10205;49.678;6.560;2022-10-31T07:07:53;100280.00;;;14.50
20092;BMP180;10205;49.678;6.560;2022-10-31T07:10:22;100274.00;;;14.50
20092;BMP180;10205;49.678;6.560;2022-10-31T07:12:54;100287.00;;;14.50
20092;BMP180;10205;49.678;6.560;2022-10-31T07:15:22;100287.00;;;14.50
20092;BMP180;10205;49.678;6.560;2022-10-31T07:17:50;100298.00;;;14.50
20092;BMP180;10205;49.678;6.560;2022-10-31T07:20:20;100242.00;;;14.40
20092;BMP180;10205;49.678;6.560;2022-10-31T07:22:47;100291.00;;;14.50
20092;BMP180;10205;49.678;6.560;2022-10-31T07:25:15;100284.00;;;14.50
20092;BMP180;10205;49.678;6.560;2022-10-31T07:27:43;100295.00;;;14.30
20092;BMP180;10205;49.678;6.560;2022-10-31T07:30:13;100294.00;;;14.50
20092;BMP180;10205;49.678;6.560;2022-10-31T07:32:46;100296.00;;;14.50
20092;BMP180;10205;49.678;6.560;2022-10-31T07:35:16;100297.00;;;14.40
20092;BMP180;10205;49.678;6.560;2022-10-31T07:37:43;100291.00;;;14.50
20092;BMP180;10205;49.678;6.560;2022-10-31T07:40:12;100297.00;;;14.50
20092;BMP180;10205;49.678;6.560;2022-10-31T07:42:45;100308.00;;;14.60
20092;BMP180;10205;49.678;6.560;2022-10-31T07:45:19;100292.00;;;14.50
20092;BMP180;10205;49.678;6.560;2022-10-31T07:47:48;100296.00;;;14.50
20092;BMP180;10205;49.678;6.560;2022-10-31T07:50:19;100288.00;;;14.60
20092;BMP180;10205;49.678;6.560;2022-10-31T07:52:47;100294.00;;;14.60
20092;BMP180;10205;49.678;6.560;2022-10-31T07:55:15;100287.00;;;14.50
20092;BMP180;10205;49.678;6.560;2022-10-31T07:57:43;100228.00;;;14.60
20092;BMP180;10205;49.678;6.560;2022-10-31T08:00:12;100283.00;;;14.60
20092;BMP180;10205;49.678;6.560;2022-10-31T08:02:39;100288.00;;;14.50
20092;BMP180;10205;49.678;6.560;2022-10-31T08:05:07;100289.00;;;14.60
20092;BMP180;10205;49.678;6.560;2022-10-31T08:07:37;100275.00;;;14.60
20092;BMP180;10205;49.678;6.560;2022-10-31T08:10:08;100245.00;;;14.60
20092;BMP180;10205;49.678;6.560;2022-10-31T08:12:35;100283.00;;;14.50
20092;BMP180;10205;49.678;6.560;2022-10-31T08:15:04;100285.00;;;14.60
20092;BMP180;10205;49.678;6.560;2022-10-31T08:17:37;100283.00;;;14.60
20092;BMP180;10205;49.678;6.560;2022-10-31T08:20:06;100283.00;;;14.60
20092;BMP180;10205;49.678;6.560;2022-10-31T08:22:34;100281.00;;;14.70
20092;BMP180;10205;49.678;6.560;2022-10-31T08:25:02;100280.00;;;14.70
20092;BMP180;10205;49.678;6.560;2022-10-31T08:27:29;100271.00;;;14.70
20092;BMP180;10205;49.678;6.560;2022-10-31T08:30:08;100276.00;;;14.70
20092;BMP180;10205;49.678;6.560;2022-10-31T08:32:36;100269.00;;;14.70
20092;BMP180;10205;49.678;6.560;2022-10-31T08:35:04;100198.00;;;14.70
20092;BMP180;10205;49.678;6.560;2022-10-31T08:37:32;100217.00;;;14.70
20092;BMP180;10205;49.678;6.560;2022-10-31T08:39:59;100202.00;;;14.70
20092;BMP180;10205;49.678;6.560;2022-10-31T08:42:26;100229.00;;;14.80
20092;BMP180;10205;49.678;6.560;2022-10-31T08:44:53;100241.00;;;14.80
20092;BMP180;10205;49.678;6.560;2022-10-31T08:47:21;100248.00;;;14.80
20092;BMP180;10205;49.678;6.560;2022-10-31T08:49:48;100255.00;;;14.80
20092;BMP180;10205;49.678;6.560;2022-10-31T08:52:16;100233.00;;;14.80
20092;BMP180;10205;49.678;6.560;2022-10-31T08:54:43;100238.00;;;14.80
20092;BMP180;10205;49.678;6.560;2022-10-31T08:57:13;100220.00;;;14.80
20092;BMP180;10205;49.678;6.560;2022-10-31T08:59:40;100229.00;;;14.80
20092;BMP180;10205;49.678;6.560;2022-10-31T09:02:07;100230.00;;;14.90
20092;BMP180;10205;49.678;6.560;2022-10-31T09:04:38;100239.00;;;14.90
20092;BMP180;10205;49.678;6.560;2022-10-31T09:07:05;100204.00;;;14.90
20092;BMP180;10205;49.678;6.560;2022-10-31T09:09:32;100240.00;;;14.90
20092;BMP180;10205;49.678;6.560;2022-10-31T09:11:59;100205.00;;;14.90
20092;BMP180;10205;49.678;6.560;2022-10-31T09:14:26;100223.00;;;14.90
20092;BMP180;10205;49.678;6.560;2022-10-31T09:16:53;100243.00;;;14.90
20092;BMP180;10205;49.678;6.560;2022-10-31T09:19:21;100211.00;;;14.80
20092;BMP180;10205;49.678;6.560;2022-10-31T09:21:52;100207.00;;;15.00
20092;BMP180;10205;49.678;6.560;2022-10-31T09:24:20;100198.00;;;15.00
20092;BMP180;10205;49.678;6.560;2022-10-31T09:26:47;100194.00;;;15.00
20092;BMP180;10205;49.678;6.560;2022-10-31T09:29:14;100216.00;;;15.10
20092;BMP180;10205;49.678;6.560;2022-10-31T09:31:41;100149.00;;;15.10
20092;BMP180;10205;49.678;6.560;2022-10-31T09:34:09;100215.00;;;15.10
20092;BMP180;10205;49.678;6.560;2022-10-31T09:36:37;100217.00;;;15.10
20092;BMP180;10205;49.678;6.560;2022-10-31T09:39:05;100203.00;;;15.10
20092;BMP180;10205;49.678;6.560;2022-10-31T09:42:00;100205.00;;;15.20
20092;BMP180;10205;49.678;6.560;2022-10-31T09:44:47;100131.00;;;15.20
20092;BMP180;10205;49.678;6.560;2022-10-31T09:47:29;100205.00;;;15.20
20092;BMP180;10205;49.678;6.560;2022-10-31T09:50:15;100204.00;;;15.30
20092;BMP180;10205;49.678;6.560;2022-10-31T09:52:54;100199.00;;;15.30
20092;BMP180;10205;49.678;6.560;2022-10-31T09:55:43;100201.00;;;15.30
20092;BMP180;10205;49.678;6.560;2022-10-31T09:58:18;100207.00;;;15.30
20092;BMP180;10205;49.678;6.560;2022-10-31T10:00:47;100195.00;;;15.40
20092;BMP180;10205;49.678;6.560;2022-10-31T10:03:33;100196.00;;;15.40
20092;BMP180;10205;49.678;6.560;2022-10-31T10:06:12;100192.00;;;15.40
20092;BMP180;10205;49.678;6.560;2022-10-31T10:08:42;100188.00;;;15.50
20092;BMP180;10205;49.678;6.560;2022-10-31T10:11:33;100193.00;;;15.50
20092;BMP180;10205;49.678;6.560;2022-10-31T10:14:31;100193.00;;;15.40
20092;BMP180;10205;49.678;6.560;2022-10-31T10:17:33;100191.00;;;15.60
20092;BMP180;10205;49.678;6.560;2022-10-31T10:20:26;100198.00;;;15.60
20092;BMP180;10205;49.678;6.560;2022-10-31T10:23:13;100178.00;;;15.60
20092;BMP180;10205;49.678;6.560;2022-10-31T10:25:52;100186.00;;;15.60
20092;BMP180;10205;49.678;6.560;2022-10-31T10:28:29;100193.00;;;15.70
20092;BMP180;10205;49.678;6.560;2022-10-31T10:31:06;100180.00;;;15.70
20092;BMP180;10205;49.678;6.560;2022-10-31T10:33:38;100175.00;;;15.70
20092;BMP180;10205;49.678;6.560;2022-10-31T10:36:14;100164.00;;;15.70
20092;BMP180;10205;49.678;6.560;2022-10-31T10:38:52;100177.00;;;15.80
20092;BMP180;10205;49.678;6.560;2022-10-31T10:41:23;100167.00;;;15.80
20092;BMP180;10205;49.678;6.560;2022-10-31T10:43:53;100164.00;;;15.80
20092;BMP180;10205;49.678;6.560;2022-10-31T10:46:26;100169.00;;;15.90
20092;BMP180;10205;49.678;6.560;2022-10-31T10:49:17;100175.00;;;15.90
20092;BMP180;10205;49.678;6.560;2022-10-31T10:51:57;100181.00;;;15.90
20092;BMP180;10205;49.678;6.560;2022-10-31T10:54:49;100170.00;;;16.00
20092;BMP180;10205;49.678;6.560;2022-10-31T10:57:44;100163.00;;;16.00
20092;BMP180;10205;49.678;6.560;2022-10-31T11:00:20;100163.00;;;16.00
20092;BMP180;10205;49.678;6.560;2022-10-31T11:02:49;100173.00;;;16.10
20092;BMP180;10205;49.678;6.560;2022-10-31T11:05:28;100157.00;;;16.10
20092;BMP180;10205;49.678;6.560;2022-10-31T11:07:56;100156.00;;;16.10
20092;BMP180;10205;49.678;6.560;2022-10-31T11:10:24;100146.00;;;16.20
20092;BMP180;10205;49.678;6.560;2022-10-31T11:13:14;100134.00;;;16.20
20092;BMP180;10205;49.678;6.560;2022-10-31T11:16:01;100124.00;;;16.20
20092;BMP180;10205;49.678;6.560;2022-10-31T11:18:32;100127.00;;;16.20
20092;BMP180;10205;49.678;6.560;2022-10-31T11:21:02;100118.00;;;16.30
20092;BMP180;10205;49.678;6.560;2022-10-31T11:23:32;100110.00;;;16.30
20092;BMP180;10205;49.678;6.560;2022-10-31T11:26:02;100105.00;;;16.40
20092;BMP180;10205;49.678;6.560;2022-10-31T11:28:32;100106.00;;;16.40
20092;BMP180;10205;49.678;6.560;2022-10-31T11:31:08;100098.00;;;16.50
20092;BMP180;10205;49.678;6.560;2022-10-31T11:33:44;100099.00;;;16.50
20092;BMP180;10205;49.678;6.560;2022-10-31T11:36:21;100093.00;;;16.50
20092;BMP180;10205;49.678;6.560;2022-10-31T11:38:51;100078.00;;;16.60
20092;BMP180;10205;49.678;6.560;2022-10-31T11:41:25;100103.00;;;16.60
20092;BMP180;10205;49.678;6.560;2022-10-31T11:43:58;100087.00;;;16.60
20092;BMP180;10205;49.678;6.560;2022-10-31T11:46:35;100079.00;;;16.70
20092;BMP180;10205;49.678;6.560;2022-10-31T11:49:13;100045.00;;;16.70
20092;BMP180;10205;49.678;6.560;2022-10-31T11:51:42;100062.00;;;16.70
20092;BMP180;10205;49.678;6.560;2022-10-31T11:54:22;100058.00;;;16.80
20092;BMP180;10205;49.678;6.560;2022-10-31T11:56:50;100052.00;;;16.80
20092;BMP180;10205;49.678;6.560;2022-10-31T11:59:25;100055.00;;;16.80
20092;BMP180;10205;49.678;6.560;2022-10-31T12:01:57;100027.00;;;16.80
20092;BMP180;10205;49.678;6.560;2022-10-31T12:04:35;100069.00;;;16.90
20092;BMP180;10205;49.678;6.560;2022-10-31T12:07:06;100035.00;;;17.00
20092;BMP180;10205;49.678;6.560;2022-10-31T12:09:36;100051.00;;;17.00
20092;BMP180;10205;49.678;6.560;2022-10-31T12:15:29;100048.00;;;17.00
20092;BMP180;10205;49.678;6.560;2022-10-31T12:18:24;100029.00;;;17.10
20092;BMP180;10205;49.678;6.560;2022-10-31T12:21:14;99976.00;;;17.10
20092;BMP180;10205;49.678;6.560;2022-10-31T12:23:58;99972.00;;;17.10
20092;BMP180;10205;49.678;6.560;2022-10-31T12:26:36;100014.00;;;17.20
20092;BMP180;10205;49.678;6.560;2022-10-31T12:29:33;99966.00;;;17.20
20092;BMP180;10205;49.678;6.560;2022-10-31T12:32:20;99974.00;;;17.30
20092;BMP180;10205;49.678;6.560;2022-10-31T12:38:17;99987.00;;;17.30
20092;BMP180;10205;49.678;6.560;2022-10-31T12:41:09;99980.00;;;17.40
20092;BMP180;10205;49.678;6.560;2022-10-31T12:43:48;99958.00;;;17.40
20092;BMP180;10205;49.678;6.560;2022-10-31T12:46:43;99972.00;;;17.40
20092;BMP180;10205;49.678;6.560;2022-10-31T12:49:39;99930.00;;;17.40
20092;BMP180;10205;49.678;6.560;2022-10-31T12:52:29;99964.00;;;17.50
20092;BMP180;10205;49.678;6.560;2022-10-31T12:55:32;99957.00;;;17.50
20092;BMP180;10205;49.678;6.560;2022-10-31T12:58:09;99938.00;;;17.60
20092;BMP180;10205;49.678;6.560;2022-10-31T13:00:43;99910.00;;;17.60
20092;BMP180;10205;49.678;6.560;2022-10-31T13:03:25;99927.00;;;17.60
20092;BMP180;10205;49.678;6.560;2022-10-31T13:05:58;99914.00;;;17.70
20092;BMP180;10205;49.678;6.560;2022-10-31T13:08:36;99918.00;;;17.70
20092;BMP180;10205;49.678;6.560;2022-10-31T13:11:11;99916.00;;;17.80
20092;BMP180;10205;49.678;6.560;2022-10-31T13:13:44;99905.00;;;17.80
20092;BMP180;10205;49.678;6.560;2022-10-31T13:16:17;99906.00;;;17.80
20092;BMP180;10205;49.678;6.560;2022-10-31T13:18:53;99911.00;;;17.90
20092;BMP180;10205;49.678;6.560;2022-10-31T13:21:27;99906.00;;;17.90
20092;BMP180;10205;49.678;6.560;2022-10-31T13:24:03;99896.00;;;18.00
20092;BMP180;10205;49.678;6.560;2022-10-31T13:26:38;99866.00;;;18.00
20092;BMP180;10205;49.678;6.560;2022-10-31T13:29:17;99872.00;;;18.00
20092;BMP180;10205;49.678;6.560;2022-10-31T13:31:46;99883.00;;;18.10
20092;BMP180;10205;49.678;6.560;2022-10-31T13:34:25;99879.00;;;18.10
20092;BMP180;10205;49.678;6.560;2022-10-31T13:37:03;99876.00;;;18.20
20092;BMP180;10205;49.678;6.560;2022-10-31T13:39:52;99865.00;;;18.20
20092;BMP180;10205;49.678;6.560;2022-10-31T13:42:37;99861.00;;;18.30
20092;BMP180;10205;49.678;6.560;2022-10-31T13:45:13;99825.00;;;18.30
20092;BMP180;10205;49.678;6.560;2022-10-31T13:47:41;99855.00;;;18.20
20092;BMP180;10205;49.678;6.560;2022-10-31T13:50:23;99846.00;;;18.40
20092;BMP180;10205;49.678;6.560;2022-10-31T13:52:51;99850.00;;;18.40
20092;BMP180;10205;49.678;6.560;2022-10-31T13:55:43;99854.00;;;18.50
20092;BMP180;10205;49.678;6.560;2022-10-31T13:58:23;99850.00;;;18.40
20092;BMP180;10205;49.678;6.560;2022-10-31T14:01:12;99848.00;;;18.50
20092;BMP180;10205;49.678;6.560;2022-10-31T14:03:44;99845.00;;;18.60
20092;BMP180;10205;49.678;6.560;2022-10-31T14:06:13;99823.00;;;18.60
20092;BMP180;10205;49.678;6.560;2022-10-31T14:08:49;99834.00;;;18.60
20092;BMP180;10205;49.678;6.560;2022-10-31T14:11:26;99846.00;;;18.70
20092;BMP180;10205;49.678;6.560;2022-10-31T14:13:57;99820.00;;;18.70
20092;BMP180;10205;49.678;6.560;2022-10-31T14:16:28;99817.00;;;18.70
20092;BMP180;10205;49.678;6.560;2022-10-31T14:19:01;99817.00;;;18.70
20092;BMP180;10205;49.678;6.560;2022-10-31T14:21:37;99801.00;;;18.80
20092;BMP180;10205;49.678;6.560;2022-10-31T14:24:15;99807.00;;;18.80
20092;BMP180;10205;49.678;6.560;2022-10-31T14:26:54;99763.00;;;18.80
20092;BMP180;10205;49.678;6.560;2022-10-31T14:29:27;99798.00;;;18.80
20092;BMP180;10205;49.678;6.560;2022-10-31T14:32:06;99799.00;;;
20092;BMP180;10205;49.678;6.560;2022-10-31T14:34:42;99802.00;;;18.90
20092;BMP180;10205;49.678;6.560;2022-10-31T14:37:38;99801.00;;;18.90
20092;BMP180;10205;49.678;6.560;2022-10-31T14:40:24;99775.00;;;18.90